sensor_id;sensor_type;location;lat;lon;timestamp;temperature;humidity
52397;DHT22;38322;53.108;6.308;2023-05-07T05:03:12;10.80;99.90
52397;DHT22;38322;53.108;6.308;2023-05-07T05:05:38;10.90;99.90
52397;DHT22;38322;53.108;6.308;2023-05-07T05:08:04;10.90;99.90
52397;DHT22;38322;53.108;6.308;2023-05-07T05:10:30;10.90;99.90
52397;DHT22;38322;53.108;6.308;2023-05-07T05:12:55;10.90;99.90
52397;DHT22;38322;53.108;6.308;2023-05-07T05:15:21;10.90;99.90
52397;DHT22;38322;53.108;6.308;2023-05-07T05:17:47;10.90;99.90
52397;DHT22;38322;53.108;6.308;2023-05-07T05:20:12;10.90;99.90
52397;DHT22;38322;53.108;6.308;2023-05-07T05:22:40;10.90;99.90
52397;DHT22;38322;53.108;6.308;2023-05-07T05:25:06;10.90;99.90
52397;DHT22;38322;53.108;6.308;2023-05-07T05:27:32;10.90;99.90
52397;DHT22;38322;53.108;6.308;2023-05-07T05:29:57;10.90;99.90
52397;DHT22;38322;53.108;6.308;2023-05-07T05:32:23;10.90;99.90
52397;DHT22;38322;53.108;6.308;2023-05-07T05:34:49;10.80;99.90
52397;DHT22;38322;53.108;6.308;2023-05-07T05:37:14;10.90;99.90
52397;DHT22;38322;53.108;6.308;2023-05-07T05:39:40;10.90;99.90
52397;DHT22;38322;53.108;6.308;2023-05-07T05:42:06;10.90;99.90
52397;DHT22;38322;53.108;6.308;2023-05-07T05:44:32;10.90;99.90
52397;DHT22;38322;53.108;6.308;2023-05-07T05:46:58;10.90;99.90
52397;DHT22;38322;53.108;6.308;2023-05-07T05:49:25;10.90;99.90
52397;DHT22;38322;53.108;6.308;2023-05-07T05:51:51;11.00;99.90
52397;DHT22;38322;53.108;6.308;2023-05-07T05:54:16;11.00;99.90
52397;DHT22;38322;53.108;6.308;2023-05-07T05:56:42;11.10;99.90
52397;DHT22;38322;53.108;6.308;2023-05-07T05:59:08;11.10;99.90
52397;DHT22;38322;53.108;6.308;2023-05-07T06:01:34;11.10;99.90
52397;DHT22;38322;53.108;6.308;2023-05-07T06:04:00;11.20;99.90
52397;DHT22;38322;53.108;6.308;2023-05-07T06:06:25;11.30;99.90
52397;DHT22;38322;53.108;6.308;2023-05-07T06:08:51;11.30;99.90
52397;DHT22;38322;53.108;6.308;2023-05-07T06:11:17;11.30;99.90
52397;DHT22;38322;53.108;6.308;2023-05-07T06:13:43;11.30;99.90
52397;DHT22;38322;53.108;6.308;2023-05-07T06:16:08;11.40;99.90
52397;DHT22;38322;53.108;6.308;2023-05-07T06:18:34;11.30;99.90
52397;DHT22;38322;53.108;6.308;2023-05-07T06:21:01;11.30;99.90
52397;DHT22;38322;53.108;6.308;2023-05-07T06:23:27;11.30;99.90
52397;DHT22;38322;53.108;6.308;2023-05-07T06:25:53;11.30;99.90
52397;DHT22;38322;53.108;6.308;2023-05-07T06:28:19;11.40;99.90
52397;DHT22;38322;53.108;6.308;2023-05-07T06:30:45;11.50;99.90
52397;DHT22;38322;53.108;6.308;2023-05-07T06:33:11;11.40;99.90
52397;DHT22;38322;53.108;6.308;2023-05-07T06:35:36;11.40;99.90
52397;DHT22;38322;53.108;6.308;2023-05-07T06:38:02;11.50;99.90
52397;DHT22;38322;53.108;6.308;2023-05-07T06:40:28;11.50;99.90
52397;DHT22;38322;53.108;6.308;2023-05-07T06:42:54;11.60;99.90
52397;DHT22;38322;53.108;6.308;2023-05-07T06:45:20;11.60;99.90
52397;DHT22;38322;53.108;6.308;2023-05-07T06:47:45;11.60;99.90
52397;DHT22;38322;53.108;6.308;2023-05-07T06:50:11;11.60;99.90
52397;DHT22;38322;53.108;6.308;2023-05-07T06:52:37;11.70;99.90
52397;DHT22;38322;53.108;6.308;2023-05-07T06:55:03;11.60;99.90
52397;DHT22;38322;53.108;6.308;2023-05-07T06:57:29;11.70;99.90
52397;DHT22;38322;53.108;6.308;2023-05-07T06:59:55;11.70;99.90
52397;DHT22;38322;53.108;6.308;2023-05-07T07:02:21;11.60;99.90
52397;DHT22;38322;53.108;6.308;2023-05-07T07:04:47;11.70;99.90
52397;DHT22;38322;53.108;6.308;2023-05-07T07:07:12;11.80;99.90
52397;DHT22;38322;53.108;6.308;2023-05-07T07:09:38;11.80;99.90
52397;DHT22;38322;53.108;6.308;2023-05-07T07:12:04;11.90;99.90
52397;DHT22;38322;53.108;6.308;2023-05-07T07:14:30;11.90;99.90
52397;DHT22;38322;53.108;6.308;2023-05-07T07:16:56;12.00;99.90
52397;DHT22;38322;53.108;6.308;2023-05-07T07:19:21;12.10;99.90
52397;DHT22;38322;53.108;6.308;2023-05-07T07:21:47;12.10;99.90
52397;DHT22;38322;53.108;6.308;2023-05-07T07:24:14;12.10;99.90
52397;DHT22;38322;53.108;6.308;2023-05-07T07:26:44;12.10;99.90
52397;DHT22;38322;53.108;6.308;2023-05-07T07:29:10;12.00;99.90
52397;DHT22;38322;53.108;6.308;2023-05-07T07:31:36;12.10;99.90
52397;DHT22;38322;53.108;6.308;2023-05-07T07:34:02;12.20;99.90
52397;DHT22;38322;53.108;6.308;2023-05-07T07:36:27;12.20;99.90
52397;DHT22;38322;53.108;6.308;2023-05-07T07:38:53;12.20;99.90
52397;DHT22;38322;53.108;6.308;2023-05-07T07:41:19;12.30;99.90
52397;DHT22;38322;53.108;6.308;2023-05-07T07:43:45;12.40;99.90
52397;DHT22;38322;53.108;6.308;2023-05-07T07:46:12;12.30;99.90
52397;DHT22;38322;53.108;6.308;2023-05-07T07:48:38;12.40;99.90
52397;DHT22;38322;53.108;6.308;2023-05-07T07:51:04;12.30;99.90
52397;DHT22;38322;53.108;6.308;2023-05-07T07:53:30;12.30;99.90
52397;DHT22;38322;53.108;6.308;2023-05-07T07:55:56;12.30;99.90
52397;DHT22;38322;53.108;6.308;2023-05-07T07:58:22;12.30;99.90
52397;DHT22;38322;53.108;6.308;2023-05-07T08:00:48;12.30;99.90
52397;DHT22;38322;53.108;6.308;2023-05-07T08:03:14;12.30;99.90
52397;DHT22;38322;53.108;6.308;2023-05-07T08:05:42;12.30;99.90
52397;DHT22;38322;53.108;6.308;2023-05-07T08:08:08;12.30;99.90
52397;DHT22;38322;53.108;6.308;2023-05-07T08:10:34;12.30;99.90
52397;DHT22;38322;53.108;6.308;2023-05-07T08:13:03;12.30;99.90
52397;DHT22;38322;53.108;6.308;2023-05-07T08:15:30;12.30;99.90
52397;DHT22;38322;53.108;6.308;2023-05-07T08:17:55;12.40;99.90
52397;DHT22;38322;53.108;6.308;2023-05-07T08:20:23;12.60;99.90
52397;DHT22;38322;53.108;6.308;2023-05-07T08:22:49;12.60;99.90
52397;DHT22;38322;53.108;6.308;2023-05-07T08:25:15;12.70;99.90
52397;DHT22;38322;53.108;6.308;2023-05-07T08:27:40;12.80;99.90
52397;DHT22;38322;53.108;6.308;2023-05-07T08:30:07;13.00;99.90
52397;DHT22;38322;53.108;6.308;2023-05-07T08:32:33;13.00;99.90
52397;DHT22;38322;53.108;6.308;2023-05-07T08:34:59;13.10;99.90
52397;DHT22;38322;53.108;6.308;2023-05-07T08:37:25;13.20;99.90
52397;DHT22;38322;53.108;6.308;2023-05-07T08:39:51;13.30;99.90
52397;DHT22;38322;53.108;6.308;2023-05-07T08:42:17;13.20;99.90
52397;DHT22;38322;53.108;6.308;2023-05-07T08:44:45;13.20;99.90
52397;DHT22;38322;53.108;6.308;2023-05-07T08:47:13;13.30;99.90
52397;DHT22;38322;53.108;6.308;2023-05-07T08:49:38;13.30;99.90
52397;DHT22;38322;53.108;6.308;2023-05-07T08:52:04;13.30;99.90
52397;DHT22;38322;53.108;6.308;2023-05-07T08:54:31;13.40;99.90
52397;DHT22;38322;53.108;6.308;2023-05-07T08:56:56;13.40;99.90
52397;DHT22;38322;53.108;6.308;2023-05-07T08:59:22;13.50;99.90
52397;DHT22;38322;53.108;6.308;2023-05-07T09:01:48;13.60;99.90
52397;DHT22;38322;53.108;6.308;2023-05-07T09:04:14;13.70;99.90
52397;DHT22;38322;53.108;6.308;2023-05-07T09:06:40;13.70;99.90
52397;DHT22;38322;53.108;6.308;2023-05-07T09:09:07;13.70;99.90
52397;DHT22;38322;53.108;6.308;2023-05-07T09:11:33;13.80;99.90
52397;DHT22;38322;53.108;6.308;2023-05-07T09:14:00;13.90;99.90
52397;DHT22;38322;53.108;6.308;2023-05-07T09:16:29;14.00;99.90
52397;DHT22;38322;53.108;6.308;2023-05-07T09:18:58;14.10;99.90
52397;DHT22;38322;53.108;6.308;2023-05-07T09:21:24;14.10;99.90
52397;DHT22;38322;53.108;6.308;2023-05-07T09:23:52;14.20;99.90
52397;DHT22;38322;53.108;6.308;2023-05-07T09:26:18;14.30;99.90
52397;DHT22;38322;53.108;6.308;2023-05-07T09:28:46;14.40;99.90
52397;DHT22;38322;53.108;6.308;2023-05-07T09:31:12;14.30;99.90
52397;DHT22;38322;53.108;6.308;2023-05-07T09:33:39;14.50;99.90
52397;DHT22;38322;53.108;6.308;2023-05-07T09:36:07;14.60;99.90
52397;DHT22;38322;53.108;6.308;2023-05-07T09:38:34;14.60;99.90
52397;DHT22;38322;53.108;6.308;2023-05-07T09:41:03;14.70;99.90
52397;DHT22;38322;53.108;6.308;2023-05-07T09:43:32;14.60;99.90
52397;DHT22;38322;53.108;6.308;2023-05-07T09:46:03;14.50;99.90
52397;DHT22;38322;53.108;6.308;2023-05-07T09:48:30;14.40;99.90
52397;DHT22;38322;53.108;6.308;2023-05-07T09:50:57;14.60;99.90
52397;DHT22;38322;53.108;6.308;2023-05-07T09:53:27;14.60;99.90
52397;DHT22;38322;53.108;6.308;2023-05-07T09:55:56;14.70;99.90
52397;DHT22;38322;53.108;6.308;2023-05-07T09:58:23;14.80;99.90
52397;DHT22;38322;53.108;6.308;2023-05-07T10:00:50;14.80;99.90
52397;DHT22;38322;53.108;6.308;2023-05-07T10:03:18;14.80;99.90
52397;DHT22;38322;53.108;6.308;2023-05-07T10:05:45;14.90;99.90
52397;DHT22;38322;53.108;6.308;2023-05-07T10:08:13;14.90;99.90
52397;DHT22;38322;53.108;6.308;2023-05-07T10:10:42;15.00;99.90
52397;DHT22;38322;53.108;6.308;2023-05-07T10:13:10;14.90;99.90
52397;DHT22;38322;53.108;6.308;2023-05-07T10:15:37;14.90;99.90
52397;DHT22;38322;53.108;6.308;2023-05-07T10:18:04;14.90;99.90
52397;DHT22;38322;53.108;6.308;2023-05-07T10:20:33;14.90;99.90
52397;DHT22;38322;53.108;6.308;2023-05-07T10:23:04;14.90;99.90
52397;DHT22;38322;53.108;6.308;2023-05-07T10:25:32;14.90;99.90
52397;DHT22;38322;53.108;6.308;2023-05-07T10:28:06;14.90;99.90
52397;DHT22;38322;53.108;6.308;2023-05-07T10:30:48;15.00;99.90
52397;DHT22;38322;53.108;6.308;2023-05-07T10:33:23;15.00;99.90
52397;DHT22;38322;53.108;6.308;2023-05-07T10:35:51;15.00;99.90
52397;DHT22;38322;53.108;6.308;2023-05-07T10:38:21;15.10;99.90
52397;DHT22;38322;53.108;6.308;2023-05-07T10:40:47;15.10;99.90
52397;DHT22;38322;53.108;6.308;2023-05-07T10:43:12;15.20;99.90
52397;DHT22;38322;53.108;6.308;2023-05-07T10:45:38;15.40;99.90
52397;DHT22;38322;53.108;6.308;2023-05-07T10:48:07;15.50;99.90
52397;DHT22;38322;53.108;6.308;2023-05-07T10:50:34;15.60;99.90
52397;DHT22;38322;53.108;6.308;2023-05-07T10:53:21;15.70;99.90
52397;DHT22;38322;53.108;6.308;2023-05-07T10:55:51;15.90;99.90
52397;DHT22;38322;53.108;6.308;2023-05-07T10:58:25;15.90;99.90
52397;DHT22;38322;53.108;6.308;2023-05-07T11:00:58;16.00;99.90
52397;DHT22;38322;53.108;6.308;2023-05-07T11:03:25;16.00;99.90
52397;DHT22;38322;53.108;6.308;2023-05-07T11:06:12;16.10;99.90
52397;DHT22;38322;53.108;6.308;2023-05-07T11:08:52;16.30;99.90
52397;DHT22;38322;53.108;6.308;2023-05-07T11:11:18;16.30;99.90
52397;DHT22;38322;53.108;6.308;2023-05-07T11:13:46;16.20;99.90
52397;DHT22;38322;53.108;6.308;2023-05-07T11:16:21;16.30;99.90
52397;DHT22;38322;53.108;6.308;2023-05-07T11:18:55;16.50;99.90
52397;DHT22;38322;53.108;6.308;2023-05-07T11:23:58;16.70;99.90
52397;DHT22;38322;53.108;6.308;2023-05-07T11:26:25;16.50;99.90
52397;DHT22;38322;53.108;6.308;2023-05-07T11:28:51;16.60;99.90
52397;DHT22;38322;53.108;6.308;2023-05-07T11:31:23;16.60;99.90
52397;DHT22;38322;53.108;6.308;2023-05-07T11:33:49;16.80;99.90
52397;DHT22;38322;53.108;6.308;2023-05-07T11:36:16;16.90;99.90
52397;DHT22;38322;53.108;6.308;2023-05-07T11:38:42;16.80;99.90
52397;DHT22;38322;53.108;6.308;2023-05-07T11:41:08;16.90;99.90
52397;DHT22;38322;53.108;6.308;2023-05-07T11:43:34;16.80;99.90
52397;DHT22;38322;53.108;6.308;2023-05-07T11:46:10;16.90;99.90
52397;DHT22;38322;53.108;6.308;2023-05-07T11:48:37;17.00;99.90
52397;DHT22;38322;53.108;6.308;2023-05-07T11:51:04;17.00;99.90
52397;DHT22;38322;53.108;6.308;2023-05-07T11:53:40;16.90;99.90
52397;DHT22;38322;53.108;6.308;2023-05-07T11:56:10;17.20;99.90
52397;DHT22;38322;53.108;6.308;2023-05-07T11:58:36;17.30;99.90
52397;DHT22;38322;53.108;6.308;2023-05-07T12:01:02;17.60;99.90
52397;DHT22;38322;53.108;6.308;2023-05-07T12:03:28;17.80;99.90
52397;DHT22;38322;53.108;6.308;2023-05-07T12:05:54;17.90;99.90
52397;DHT22;38322;53.108;6.308;2023-05-07T12:08:21;17.80;99.90
52397;DHT22;38322;53.108;6.308;2023-05-07T12:10:49;17.70;99.90
52397;DHT22;38322;53.108;6.308;2023-05-07T12:13:15;17.80;99.90
52397;DHT22;38322;53.108;6.308;2023-05-07T12:15:42;17.80;99.90
52397;DHT22;38322;53.108;6.308;2023-05-07T12:18:08;17.90;99.90
52397;DHT22;38322;53.108;6.308;2023-05-07T12:20:35;18.20;99.90
52397;DHT22;38322;53.108;6.308;2023-05-07T12:23:02;18.30;99.90
52397;DHT22;38322;53.108;6.308;2023-05-07T12:25:32;18.20;99.90
52397;DHT22;38322;53.108;6.308;2023-05-07T12:28:01;18.10;99.90
52397;DHT22;38322;53.108;6.308;2023-05-07T12:30:27;18.10;99.90
52397;DHT22;38322;53.108;6.308;2023-05-07T12:32:54;18.40;99.90
52397;DHT22;38322;53.108;6.308;2023-05-07T12:35:28;18.50;99.90
52397;DHT22;38322;53.108;6.308;2023-05-07T12:37:56;18.50;99.90
52397;DHT22;38322;53.108;6.308;2023-05-07T12:40:22;18.70;99.90
52397;DHT22;38322;53.108;6.308;2023-05-07T12:42:53;18.90;99.90
52397;DHT22;38322;53.108;6.308;2023-05-07T12:45:20;19.10;99.90
52397;DHT22;38322;53.108;6.308;2023-05-07T12:47:47;19.20;99.90
52397;DHT22;38322;53.108;6.308;2023-05-07T12:50:14;19.30;99.90
52397;DHT22;38322;53.108;6.308;2023-05-07T12:52:40;19.20;99.90
52397;DHT22;38322;53.108;6.308;2023-05-07T12:55:07;19.00;99.90
52397;DHT22;38322;53.108;6.308;2023-05-07T12:57:41;18.90;99.90
52397;DHT22;38322;53.108;6.308;2023-05-07T13:00:07;19.00;99.90
52397;DHT22;38322;53.108;6.308;2023-05-07T13:02:34;19.10;99.90
52397;DHT22;38322;53.108;6.308;2023-05-07T13:05:01;19.20;99.90
52397;DHT22;38322;53.108;6.308;2023-05-07T13:07:27;19.40;99.90
52397;DHT22;38322;53.108;6.308;2023-05-07T13:09:52;19.30;99.90
52397;DHT22;38322;53.108;6.308;2023-05-07T13:12:18;19.30;99.90
52397;DHT22;38322;53.108;6.308;2023-05-07T13:14:44;19.30;99.90
52397;DHT22;38322;53.108;6.308;2023-05-07T13:17:10;19.40;99.90
52397;DHT22;38322;53.108;6.308;2023-05-07T13:19:35;19.60;99.90
52397;DHT22;38322;53.108;6.308;2023-05-07T13:22:03;19.80;99.90
52397;DHT22;38322;53.108;6.308;2023-05-07T13:24:29;19.70;99.90
52397;DHT22;38322;53.108;6.308;2023-05-07T13:26:55;19.50;99.90
52397;DHT22;38322;53.108;6.308;2023-05-07T13:29:21;19.40;99.90
52397;DHT22;38322;53.108;6.308;2023-05-07T13:31:54;19.10;99.90
52397;DHT22;38322;53.108;6.308;2023-05-07T13:34:20;19.30;99.90
52397;DHT22;38322;53.108;6.308;2023-05-07T13:36:46;19.20;99.90
52397;DHT22;38322;53.108;6.308;2023-05-07T13:39:12;19.50;99.90
52397;DHT22;38322;53.108;6.308;2023-05-07T13:41:38;19.40;99.90
52397;DHT22;38322;53.108;6.308;2023-05-07T13:44:03;19.50;99.90
52397;DHT22;38322;53.108;6.308;2023-05-07T13:46:29;19.60;99.90
52397;DHT22;38322;53.108;6.308;2023-05-07T13:48:55;19.50;99.90
52397;DHT22;38322;53.108;6.308;2023-05-07T13:51:21;19.50;99.90
52397;DHT22;38322;53.108;6.308;2023-05-07T13:53:47;19.20;99.90
52397;DHT22;38322;53.108;6.308;2023-05-07T13:56:14;19.20;99.90
52397;DHT22;38322;53.108;6.308;2023-05-07T13:58:40;19.10;99.90
52397;DHT22;38322;53.108;6.308;2023-05-07T14:01:06;19.10;99.90
52397;DHT22;38322;53.108;6.308;2023-05-07T14:03:32;18.90;99.90
52397;DHT22;38322;53.108;6.308;2023-05-07T14:05:59;19.00;99.90
52397;DHT22;38322;53.108;6.308;2023-05-07T14:08:27;19.00;99.90
52397;DHT22;38322;53.108;6.308;2023-05-07T14:10:53;19.00;99.90
52397;DHT22;38322;53.108;6.308;2023-05-07T14:13:20;19.20;99.90
52397;DHT22;38322;53.108;6.308;2023-05-07T14:15:46;19.50;99.90
52397;DHT22;38322;53.108;6.308;2023-05-07T14:18:14;19.70;99.90
52397;DHT22;38322;53.108;6.308;2023-05-07T14:20:40;19.90;99.90
52397;DHT22;38322;53.108;6.308;2023-05-07T14:23:06;19.50;99.90
52397;DHT22;38322;53.108;6.308;2023-05-07T14:25:32;19.20;99.90
52397;DHT22;38322;53.108;6.308;2023-05-07T14:27:57;18.90;99.90
52397;DHT22;38322;53.108;6.308;2023-05-07T14:30:23;18.60;99.90
52397;DHT22;38322;53.108;6.308;2023-05-07T14:32:50;18.60;99.90
52397;DHT22;38322;53.108;6.308;2023-05-07T14:35:16;18.50;99.90
52397;DHT22;38322;53.108;6.308;2023-05-07T14:37:43;18.50;99.90
52397;DHT22;38322;53.108;6.308;2023-05-07T14:40:09;18.40;99.90
52397;DHT22;38322;53.108;6.308;2023-05-07T14:42:35;18.50;99.90
52397;DHT22;38322;53.108;6.308;2023-05-07T14:45:01;18.70;99.90
52397;DHT22;38322;53.108;6.308;2023-05-07T14:47:27;18.90;99.90
52397;DHT22;38322;53.108;6.308;2023-05-07T14:49:53;19.10;99.90
52397;DHT22;38322;53.108;6.308;2023-05-07T14:52:20;19.40;99.90
52397;DHT22;38322;53.108;6.308;2023-05-07T14:54:45;19.70;99.90
52397;DHT22;38322;53.108;6.308;2023-05-07T14:57:13;20.00;99.90
52397;DHT22;38322;53.108;6.308;2023-05-07T14:59:41;20.00;99.90
52397;DHT22;38322;53.108;6.308;2023-05-07T15:02:08;19.70;99.90
52397;DHT22;38322;53.108;6.308;2023-05-07T15:04:34;19.40;99.90
52397;DHT22;38322;53.108;6.308;2023-05-07T15:07:00;19.30;99.90
52397;DHT22;38322;53.108;6.308;2023-05-07T15:09:26;19.20;99.90
52397;DHT22;38322;53.108;6.308;2023-05-07T15:11:52;19.40;99.90
52397;DHT22;38322;53.108;6.308;2023-05-07T15:14:18;19.40;99.90
52397;DHT22;38322;53.108;6.308;2023-05-07T15:16:43;19.40;99.90
52397;DHT22;38322;53.108;6.308;2023-05-07T15:19:10;19.30;99.90
52397;DHT22;38322;53.108;6.308;2023-05-07T15:21:36;19.50;99.90
52397;DHT22;38322;53.108;6.308;2023-05-07T15:24:02;19.90;99.90
52397;DHT22;38322;53.108;6.308;2023-05-07T15:26:28;20.10;99.90
52397;DHT22;38322;53.108;6.308;2023-05-07T15:28:54;20.40;99.90
52397;DHT22;38322;53.108;6.308;2023-05-07T15:31:23;20.70;99.90
52397;DHT22;38322;53.108;6.308;2023-05-07T15:33:49;20.70;99.90
52397;DHT22;38322;53.108;6.308;2023-05-07T15:36:17;20.60;99.90
52397;DHT22;38322;53.108;6.308;2023-05-07T15:38:43;20.40;99.90
52397;DHT22;38322;53.108;6.308;2023-05-07T15:41:09;20.40;99.90
52397;DHT22;38322;53.108;6.308;2023-05-07T15:43:44;20.70;99.90
52397;DHT22;38322;53.108;6.308;2023-05-07T15:46:11;21.00;99.90
52397;DHT22;38322;53.108;6.308;2023-05-07T15:48:37;21.00;99.90
52397;DHT22;38322;53.108;6.308;2023-05-07T15:51:02;20.90;99.90
52397;DHT22;38322;53.108;6.308;2023-05-07T15:53:30;20.80;99.90
52397;DHT22;38322;53.108;6.308;2023-05-07T15:55:56;20.80;99.90
52397;DHT22;38322;53.108;6.308;2023-05-07T15:58:21;21.20;99.90
52397;DHT22;38322;53.108;6.308;2023-05-07T16:00:47;21.10;99.90
52397;DHT22;38322;53.108;6.308;2023-05-07T16:03:13;20.90;99.90
52397;DHT22;38322;53.108;6.308;2023-05-07T16:05:39;21.10;99.90
52397;DHT22;38322;53.108;6.308;2023-05-07T16:08:04;21.50;99.90
52397;DHT22;38322;53.108;6.308;2023-05-07T16:10:30;21.80;99.90
52397;DHT22;38322;53.108;6.308;2023-05-07T16:12:56;21.90;99.90
52397;DHT22;38322;53.108;6.308;2023-05-07T16:15:22;22.10;99.90
52397;DHT22;38322;53.108;6.308;2023-05-07T16:17:48;21.80;99.90
52397;DHT22;38322;53.108;6.308;2023-05-07T16:20:16;21.30;99.90
52397;DHT22;38322;53.108;6.308;2023-05-07T16:22:44;21.40;99.90
52397;DHT22;38322;53.108;6.308;2023-05-07T16:25:10;21.30;99.90
52397;DHT22;38322;53.108;6.308;2023-05-07T16:27:39;21.40;99.90
52397;DHT22;38322;53.108;6.308;2023-05-07T16:30:05;21.70;99.90
52397;DHT22;38322;53.108;6.308;2023-05-07T16:32:31;21.70;99.90
52397;DHT22;38322;53.108;6.308;2023-05-07T16:34:57;21.90;99.90
52397;DHT22;38322;53.108;6.308;2023-05-07T16:37:23;22.20;99.90
52397;DHT22;38322;53.108;6.308;2023-05-07T16:39:49;22.60;99.90
52397;DHT22;38322;53.108;6.308;2023-05-07T16:42:14;22.80;99.90
52397;DHT22;38322;53.108;6.308;2023-05-07T16:44:40;23.00;99.90
52397;DHT22;38322;53.108;6.308;2023-05-07T16:47:06;22.80;99.90
52397;DHT22;38322;53.108;6.308;2023-05-07T16:49:32;22.40;99.90
52397;DHT22;38322;53.108;6.308;2023-05-07T16:51:57;22.40;99.90
52397;DHT22;38322;53.108;6.308;2023-05-07T16:54:23;22.60;99.90
52397;DHT22;38322;53.108;6.308;2023-05-07T16:56:49;22.90;99.90
52397;DHT22;38322;53.108;6.308;2023-05-07T16:59:15;22.80;99.90
52397;DHT22;38322;53.108;6.308;2023-05-07T17:01:41;22.60;99.90
52397;DHT22;38322;53.108;6.308;2023-05-07T17:04:07;22.50;99.90
52397;DHT22;38322;53.108;6.308;2023-05-07T17:06:33;22.10;99.90
52397;DHT22;38322;53.108;6.308;2023-05-07T17:08:59;22.20;99.90
52397;DHT22;38322;53.108;6.308;2023-05-07T17:11:25;21.80;99.90
52397;DHT22;38322;53.108;6.308;2023-05-07T17:13:55;21.80;99.90
52397;DHT22;38322;53.108;6.308;2023-05-07T17:16:22;21.30;99.90
52397;DHT22;38322;53.108;6.308;2023-05-07T17:18:47;20.90;99.90
52397;DHT22;38322;53.108;6.308;2023-05-07T17:21:13;20.30;99.90
52397;DHT22;38322;53.108;6.308;2023-05-07T17:23:39;20.00;99.90
52397;DHT22;38322;53.108;6.308;2023-05-07T17:26:11;19.70;99.90
52397;DHT22;38322;53.108;6.308;2023-05-07T17:28:38;19.50;99.90
52397;DHT22;38322;53.108;6.308;2023-05-07T17:31:04;19.30;99.90
52397;DHT22;38322;53.108;6.308;2023-05-07T17:33:30;19.10;99.90
52397;DHT22;38322;53.108;6.308;2023-05-07T17:35:55;19.00;99.90
52397;DHT22;38322;53.108;6.308;2023-05-07T17:38:21;18.80;99.90
52397;DHT22;38322;53.108;6.308;2023-05-07T17:40:47;18.60;99.90
52397;DHT22;38322;53.108;6.308;2023-05-07T17:43:14;18.60;99.90
52397;DHT22;38322;53.108;6.308;2023-05-07T17:45:40;18.40;99.90
52397;DHT22;38322;53.108;6.308;2023-05-07T17:48:06;18.40;99.90
52397;DHT22;38322;53.108;6.308;2023-05-07T17:50:32;18.30;99.90
52397;DHT22;38322;53.108;6.308;2023-05-07T17:52:58;18.10;99.90
52397;DHT22;38322;53.108;6.308;2023-05-07T17:55:24;17.90;99.90
52397;DHT22;38322;53.108;6.308;2023-05-07T17:57:49;17.70;99.90
52397;DHT22;38322;53.108;6.308;2023-05-07T18:00:15;17.60;99.90
52397;DHT22;38322;53.108;6.308;2023-05-07T18:02:41;17.50;99.90
52397;DHT22;38322;53.108;6.308;2023-05-07T18:05:07;17.50;99.90
52397;DHT22;38322;53.108;6.308;2023-05-07T18:07:34;17.40;99.90
52397;DHT22;38322;53.108;6.308;2023-05-07T18:10:01;17.30;99.90
52397;DHT22;38322;53.108;6.308;2023-05-07T18:12:26;17.20;99.90
52397;DHT22;38322;53.108;6.308;2023-05-07T18:14:52;17.10;99.90
52397;DHT22;38322;53.108;6.308;2023-05-07T18:17:18;17.10;99.90
52397;DHT22;38322;53.108;6.308;2023-05-07T18:19:48;16.80;99.90
52397;DHT22;38322;53.108;6.308;2023-05-07T18:22:14;16.70;99.90
52397;DHT22;38322;53.108;6.308;2023-05-07T18:24:40;16.60;99.90
52397;DHT22;38322;53.108;6.308;2023-05-07T18:27:06;16.40;99.90
52397;DHT22;38322;53.108;6.308;2023-05-07T18:29:32;16.40;99.90
52397;DHT22;38322;53.108;6.308;2023-05-07T18:31:57;16.30;99.90
52397;DHT22;38322;53.108;6.308;2023-05-07T18:34:23;16.30;99.90
52397;DHT22;38322;53.108;6.308;2023-05-07T18:36:49;16.20;99.90
52397;DHT22;38322;53.108;6.308;2023-05-07T18:39:15;16.30;99.90
52397;DHT22;38322;53.108;6.308;2023-05-07T18:41:41;16.20;99.90
52397;DHT22;38322;53.108;6.308;2023-05-07T18:44:07;16.10;99.90
52397;DHT22;38322;53.108;6.308;2023-05-07T18:46:33;16.00;99.90
52397;DHT22;38322;53.108;6.308;2023-05-07T18:48:58;16.00;99.90
52397;DHT22;38322;53.108;6.308;2023-05-07T18:51:24;15.90;99.90
52397;DHT22;38322;53.108;6.308;2023-05-07T18:53:51;15.80;99.90
52397;DHT22;38322;53.108;6.308;2023-05-07T18:56:17;15.70;99.90
52397;DHT22;38322;53.108;6.308;2023-05-07T18:58:43;15.60;99.90
52397;DHT22;38322;53.108;6.308;2023-05-07T19:01:09;15.60;99.90
52397;DHT22;38322;53.108;6.308;2023-05-07T19:03:35;15.50;99.90
52397;DHT22;38322;53.108;6.308;2023-05-07T19:06:01;15.50;99.90
52397;DHT22;38322;53.108;6.308;2023-05-07T19:08:27;15.40;99.90
52397;DHT22;38322;53.108;6.308;2023-05-07T19:10:55;15.30;99.90
52397;DHT22;38322;53.108;6.308;2023-05-07T19:13:21;15.20;99.90
52397;DHT22;38322;53.108;6.308;2023-05-07T19:15:50;15.20;99.90
52397;DHT22;38322;53.108;6.308;2023-05-07T19:18:16;15.10;99.90
52397;DHT22;38322;53.108;6.308;2023-05-07T19:20:42;15.10;99.90
52397;DHT22;38322;53.108;6.308;2023-05-07T19:23:08;15.10;99.90
52397;DHT22;38322;53.108;6.308;2023-05-07T19:25:35;15.00;99.90
52397;DHT22;38322;53.108;6.308;2023-05-07T19:28:00;15.00;99.90
52397;DHT22;38322;53.108;6.308;2023-05-07T19:30:26;14.90;99.90
52397;DHT22;38322;53.108;6.308;2023-05-07T19:32:52;14.90;99.90
52397;DHT22;38322;53.108;6.308;2023-05-07T19:35:18;14.80;99.90
52397;DHT22;38322;53.108;6.308;2023-05-07T19:37:44;14.80;99.90
52397;DHT22;38322;53.108;6.308;2023-05-07T19:40:10;14.70;99.90
52397;DHT22;38322;53.108;6.308;2023-05-07T19:42:36;14.70;99.90
52397;DHT22;38322;53.108;6.308;2023-05-07T19:45:03;14.60;99.90
52397;DHT22;38322;53.108;6.308;2023-05-07T19:47:29;14.50;99.90
52397;DHT22;38322;53.108;6.308;2023-05-07T19:49:55;14.50;99.90
52397;DHT22;38322;53.108;6.308;2023-05-07T19:52:21;14.50;99.90
52397;DHT22;38322;53.108;6.308;2023-05-07T19:54:46;14.40;99.90
52397;DHT22;38322;53.108;6.308;2023-05-07T19:57:12;14.40;99.90
52397;DHT22;38322;53.108;6.308;2023-05-07T19:59:39;14.50;99.90
